sensor_id;sensor_type;location;lat;lon;timestamp;temperature;humidity
26687;DHT22;14298;50.900;4.648;2022-08-21T00:00:29;13.20;97.10
26687;DHT22;14298;50.900;4.648;2022-08-21T00:03:00;13.20;97.10
26687;DHT22;14298;50.900;4.648;2022-08-21T00:05:30;13.10;97.10
26687;DHT22;14298;50.900;4.648;2022-08-21T00:07:58;13.10;97.10
26687;DHT22;14298;50.900;4.648;2022-08-21T00:10:27;13.10;97.10
26687;DHT22;14298;50.900;4.648;2022-08-21T00:12:55;13.10;97.10
26687;DHT22;14298;50.900;4.648;2022-08-21T00:15:26;13.10;97.10
26687;DHT22;14298;50.900;4.648;2022-08-21T00:17:56;13.10;97.10
26687;DHT22;14298;50.900;4.648;2022-08-21T00:20:26;13.00;97.10
26687;DHT22;14298;50.900;4.648;2022-08-21T00:22:55;13.00;97.10
26687;DHT22;14298;50.900;4.648;2022-08-21T00:25:24;13.00;97.10
26687;DHT22;14298;50.900;4.648;2022-08-21T00:27:53;13.00;97.10
26687;DHT22;14298;50.900;4.648;2022-08-21T00:30:23;12.90;97.10
26687;DHT22;14298;50.900;4.648;2022-08-21T00:32:53;12.90;97.10
26687;DHT22;14298;50.900;4.648;2022-08-21T00:35:26;12.80;97.10
26687;DHT22;14298;50.900;4.648;2022-08-21T00:37:53;12.80;97.10
26687;DHT22;14298;50.900;4.648;2022-08-21T00:40:30;12.80;97.10
26687;DHT22;14298;50.900;4.648;2022-08-21T00:42:53;12.80;97.10
26687;DHT22;14298;50.900;4.648;2022-08-21T00:45:23;12.70;97.10
26687;DHT22;14298;50.900;4.648;2022-08-21T00:47:52;12.70;97.10
26687;DHT22;14298;50.900;4.648;2022-08-21T00:50:23;12.70;97.10
26687;DHT22;14298;50.900;4.648;2022-08-21T00:52:52;12.60;97.10
26687;DHT22;14298;50.900;4.648;2022-08-21T00:55:22;12.60;97.10
26687;DHT22;14298;50.900;4.648;2022-08-21T00:57:54;12.60;97.10
26687;DHT22;14298;50.900;4.648;2022-08-21T01:00:36;12.50;97.10
26687;DHT22;14298;50.900;4.648;2022-08-21T01:02:57;12.50;97.10
26687;DHT22;14298;50.900;4.648;2022-08-21T01:05:26;12.50;97.10
26687;DHT22;14298;50.900;4.648;2022-08-21T01:07:55;12.50;97.10
26687;DHT22;14298;50.900;4.648;2022-08-21T01:10:27;12.50;97.10
26687;DHT22;14298;50.900;4.648;2022-08-21T01:12:56;12.40;97.10
26687;DHT22;14298;50.900;4.648;2022-08-21T01:15:28;12.50;97.10
26687;DHT22;14298;50.900;4.648;2022-08-21T01:17:57;12.50;97.10
26687;DHT22;14298;50.900;4.648;2022-08-21T01:20:26;12.60;97.10
26687;DHT22;14298;50.900;4.648;2022-08-21T01:22:54;12.50;97.10
26687;DHT22;14298;50.900;4.648;2022-08-21T01:25:23;12.50;97.10
26687;DHT22;14298;50.900;4.648;2022-08-21T01:27:51;12.40;97.10
26687;DHT22;14298;50.900;4.648;2022-08-21T01:30:25;12.40;97.10
26687;DHT22;14298;50.900;4.648;2022-08-21T01:32:54;12.30;97.10
26687;DHT22;14298;50.900;4.648;2022-08-21T01:35:23;12.30;97.10
26687;DHT22;14298;50.900;4.648;2022-08-21T01:37:51;12.30;97.10
26687;DHT22;14298;50.900;4.648;2022-08-21T01:40:20;12.20;97.10
26687;DHT22;14298;50.900;4.648;2022-08-21T01:42:48;12.20;97.10
26687;DHT22;14298;50.900;4.648;2022-08-21T01:45:17;12.10;97.10
26687;DHT22;14298;50.900;4.648;2022-08-21T01:47:46;12.10;97.10
26687;DHT22;14298;50.900;4.648;2022-08-21T01:50:17;12.10;97.10
26687;DHT22;14298;50.900;4.648;2022-08-21T01:52:47;12.20;97.10
26687;DHT22;14298;50.900;4.648;2022-08-21T01:55:16;12.20;97.10
26687;DHT22;14298;50.900;4.648;2022-08-21T01:57:46;12.10;97.10
26687;DHT22;14298;50.900;4.648;2022-08-21T02:00:17;12.10;97.10
26687;DHT22;14298;50.900;4.648;2022-08-21T02:02:45;12.10;97.10
26687;DHT22;14298;50.900;4.648;2022-08-21T02:05:14;12.00;97.10
26687;DHT22;14298;50.900;4.648;2022-08-21T02:07:46;12.00;97.10
26687;DHT22;14298;50.900;4.648;2022-08-21T02:10:18;11.90;97.10
26687;DHT22;14298;50.900;4.648;2022-08-21T02:12:45;11.90;97.10
26687;DHT22;14298;50.900;4.648;2022-08-21T02:15:14;11.80;97.10
26687;DHT22;14298;50.900;4.648;2022-08-21T02:17:51;11.80;97.10
26687;DHT22;14298;50.900;4.648;2022-08-21T02:20:34;11.80;97.10
26687;DHT22;14298;50.900;4.648;2022-08-21T02:22:57;11.70;97.10
26687;DHT22;14298;50.900;4.648;2022-08-21T02:25:27;11.70;97.10
26687;DHT22;14298;50.900;4.648;2022-08-21T02:27:55;11.70;97.10
26687;DHT22;14298;50.900;4.648;2022-08-21T02:30:27;11.70;97.10
26687;DHT22;14298;50.900;4.648;2022-08-21T02:32:56;11.60;97.10
26687;DHT22;14298;50.900;4.648;2022-08-21T02:35:25;11.60;97.10
26687;DHT22;14298;50.900;4.648;2022-08-21T02:38:03;11.60;97.10
26687;DHT22;14298;50.900;4.648;2022-08-21T02:40:29;11.60;97.10
26687;DHT22;14298;50.900;4.648;2022-08-21T02:42:59;11.60;97.10
26687;DHT22;14298;50.900;4.648;2022-08-21T02:45:29;11.60;97.10
26687;DHT22;14298;50.900;4.648;2022-08-21T02:48:00;11.60;97.10
26687;DHT22;14298;50.900;4.648;2022-08-21T02:50:32;11.50;97.10
26687;DHT22;14298;50.900;4.648;2022-08-21T02:53:01;11.50;97.10
26687;DHT22;14298;50.900;4.648;2022-08-21T02:55:31;11.50;97.10
26687;DHT22;14298;50.900;4.648;2022-08-21T02:58:00;11.50;97.10
26687;DHT22;14298;50.900;4.648;2022-08-21T03:00:30;11.50;97.10
26687;DHT22;14298;50.900;4.648;2022-08-21T03:03:00;11.50;97.10
26687;DHT22;14298;50.900;4.648;2022-08-21T03:05:29;11.50;97.10
26687;DHT22;14298;50.900;4.648;2022-08-21T03:08:01;11.50;97.10
26687;DHT22;14298;50.900;4.648;2022-08-21T03:10:30;11.50;97.10
26687;DHT22;14298;50.900;4.648;2022-08-21T03:12:58;11.50;97.10
26687;DHT22;14298;50.900;4.648;2022-08-21T03:15:27;11.50;97.10
26687;DHT22;14298;50.900;4.648;2022-08-21T03:17:56;11.50;97.10
26687;DHT22;14298;50.900;4.648;2022-08-21T03:20:26;11.50;97.10
26687;DHT22;14298;50.900;4.648;2022-08-21T03:22:55;11.50;97.10
26687;DHT22;14298;50.900;4.648;2022-08-21T03:25:25;11.50;97.10
26687;DHT22;14298;50.900;4.648;2022-08-21T03:27:54;11.50;97.10
26687;DHT22;14298;50.900;4.648;2022-08-21T03:30:22;11.50;97.10
26687;DHT22;14298;50.900;4.648;2022-08-21T03:32:51;11.60;97.10
26687;DHT22;14298;50.900;4.648;2022-08-21T03:35:20;11.60;97.10
26687;DHT22;14298;50.900;4.648;2022-08-21T03:37:48;11.60;97.10
26687;DHT22;14298;50.900;4.648;2022-08-21T03:40:18;11.60;97.10
26687;DHT22;14298;50.900;4.648;2022-08-21T03:42:47;11.60;97.10
26687;DHT22;14298;50.900;4.648;2022-08-21T03:45:17;11.60;97.10
26687;DHT22;14298;50.900;4.648;2022-08-21T03:47:57;11.60;97.10
26687;DHT22;14298;50.900;4.648;2022-08-21T03:50:29;11.60;97.10
26687;DHT22;14298;50.900;4.648;2022-08-21T03:52:58;11.50;97.10
26687;DHT22;14298;50.900;4.648;2022-08-21T03:55:27;11.50;97.10
26687;DHT22;14298;50.900;4.648;2022-08-21T03:57:56;11.50;97.10
26687;DHT22;14298;50.900;4.648;2022-08-21T04:00:25;11.50;97.10
26687;DHT22;14298;50.900;4.648;2022-08-21T04:02:53;11.50;97.10
26687;DHT22;14298;50.900;4.648;2022-08-21T04:05:22;11.50;97.10
26687;DHT22;14298;50.900;4.648;2022-08-21T04:07:59;11.50;97.10
26687;DHT22;14298;50.900;4.648;2022-08-21T04:10:30;11.50;97.10
26687;DHT22;14298;50.900;4.648;2022-08-21T04:12:58;11.50;97.10
26687;DHT22;14298;50.900;4.648;2022-08-21T04:15:27;11.40;97.10
26687;DHT22;14298;50.900;4.648;2022-08-21T04:17:56;11.50;97.10
26687;DHT22;14298;50.900;4.648;2022-08-21T04:20:24;11.50;97.10
26687;DHT22;14298;50.900;4.648;2022-08-21T04:22:53;11.60;97.10
26687;DHT22;14298;50.900;4.648;2022-08-21T04:25:23;11.60;97.10
26687;DHT22;14298;50.900;4.648;2022-08-21T04:27:53;11.60;97.10
26687;DHT22;14298;50.900;4.648;2022-08-21T04:30:22;11.60;97.10
26687;DHT22;14298;50.900;4.648;2022-08-21T04:32:51;11.60;97.10
26687;DHT22;14298;50.900;4.648;2022-08-21T04:35:21;11.60;97.10
26687;DHT22;14298;50.900;4.648;2022-08-21T04:37:50;11.60;97.10
26687;DHT22;14298;50.900;4.648;2022-08-21T04:40:20;11.60;97.10
26687;DHT22;14298;50.900;4.648;2022-08-21T04:43:01;11.60;97.10
26687;DHT22;14298;50.900;4.648;2022-08-21T04:45:38;11.60;97.10
26687;DHT22;14298;50.900;4.648;2022-08-21T04:48:09;11.60;97.10
26687;DHT22;14298;50.900;4.648;2022-08-21T04:53:16;11.70;97.10
26687;DHT22;14298;50.900;4.648;2022-08-21T04:55:45;11.70;97.10
26687;DHT22;14298;50.900;4.648;2022-08-21T04:58:16;11.70;97.10
26687;DHT22;14298;50.900;4.648;2022-08-21T05:00:46;11.80;97.10
26687;DHT22;14298;50.900;4.648;2022-08-21T05:03:16;11.80;97.10
26687;DHT22;14298;50.900;4.648;2022-08-21T05:05:45;11.80;97.10
26687;DHT22;14298;50.900;4.648;2022-08-21T05:08:17;11.90;97.10
26687;DHT22;14298;50.900;4.648;2022-08-21T05:10:46;11.90;97.10
26687;DHT22;14298;50.900;4.648;2022-08-21T05:13:15;12.00;97.10
26687;DHT22;14298;50.900;4.648;2022-08-21T05:15:44;12.10;97.10
26687;DHT22;14298;50.900;4.648;2022-08-21T05:18:12;12.30;97.10
26687;DHT22;14298;50.900;4.648;2022-08-21T05:20:41;12.50;97.10
26687;DHT22;14298;50.900;4.648;2022-08-21T05:23:11;12.70;97.10
26687;DHT22;14298;50.900;4.648;2022-08-21T05:25:40;12.80;97.10
26687;DHT22;14298;50.900;4.648;2022-08-21T05:28:09;13.00;97.10
26687;DHT22;14298;50.900;4.648;2022-08-21T05:30:38;13.20;97.10
26687;DHT22;14298;50.900;4.648;2022-08-21T05:33:06;13.40;97.10
26687;DHT22;14298;50.900;4.648;2022-08-21T05:35:35;13.50;97.10
26687;DHT22;14298;50.900;4.648;2022-08-21T05:38:04;13.70;97.10
26687;DHT22;14298;50.900;4.648;2022-08-21T05:40:32;13.80;97.10
26687;DHT22;14298;50.900;4.648;2022-08-21T05:43:01;14.00;97.10
26687;DHT22;14298;50.900;4.648;2022-08-21T05:45:31;14.20;97.10
26687;DHT22;14298;50.900;4.648;2022-08-21T05:48:15;14.40;97.10
26687;DHT22;14298;50.900;4.648;2022-08-21T05:50:45;14.70;97.10
26687;DHT22;14298;50.900;4.648;2022-08-21T05:53:14;14.80;97.10
26687;DHT22;14298;50.900;4.648;2022-08-21T05:55:44;15.00;97.10
26687;DHT22;14298;50.900;4.648;2022-08-21T05:58:15;15.10;97.10
26687;DHT22;14298;50.900;4.648;2022-08-21T06:00:44;15.20;97.10
26687;DHT22;14298;50.900;4.648;2022-08-21T06:03:17;15.20;97.10
26687;DHT22;14298;50.900;4.648;2022-08-21T06:05:46;15.20;97.10
26687;DHT22;14298;50.900;4.648;2022-08-21T06:08:16;15.30;97.10
26687;DHT22;14298;50.900;4.648;2022-08-21T06:10:45;15.40;97.10
26687;DHT22;14298;50.900;4.648;2022-08-21T06:13:15;15.50;97.10
26687;DHT22;14298;50.900;4.648;2022-08-21T06:15:44;15.60;97.10
26687;DHT22;14298;50.900;4.648;2022-08-21T06:18:13;15.60;97.10
26687;DHT22;14298;50.900;4.648;2022-08-21T06:20:42;15.80;97.10
26687;DHT22;14298;50.900;4.648;2022-08-21T06:23:10;15.90;97.10
26687;DHT22;14298;50.900;4.648;2022-08-21T06:25:40;16.00;97.10
26687;DHT22;14298;50.900;4.648;2022-08-21T06:28:09;16.10;97.10
26687;DHT22;14298;50.900;4.648;2022-08-21T06:30:39;16.20;97.10
26687;DHT22;14298;50.900;4.648;2022-08-21T06:33:08;16.40;97.10
26687;DHT22;14298;50.900;4.648;2022-08-21T06:35:37;16.50;97.10
26687;DHT22;14298;50.900;4.648;2022-08-21T06:38:05;16.60;97.10
26687;DHT22;14298;50.900;4.648;2022-08-21T06:40:34;16.70;97.10
26687;DHT22;14298;50.900;4.648;2022-08-21T06:43:15;16.80;97.10
26687;DHT22;14298;50.900;4.648;2022-08-21T06:45:40;17.00;97.10
26687;DHT22;14298;50.900;4.648;2022-08-21T06:48:08;17.10;97.10
26687;DHT22;14298;50.900;4.648;2022-08-21T06:50:37;17.20;97.10
26687;DHT22;14298;50.900;4.648;2022-08-21T06:53:08;17.40;97.10
26687;DHT22;14298;50.900;4.648;2022-08-21T06:55:38;17.60;97.10
26687;DHT22;14298;50.900;4.648;2022-08-21T06:58:07;17.80;97.10
26687;DHT22;14298;50.900;4.648;2022-08-21T07:00:41;18.20;97.10
26687;DHT22;14298;50.900;4.648;2022-08-21T07:03:25;18.60;97.10
26687;DHT22;14298;50.900;4.648;2022-08-21T07:05:54;19.00;97.10
26687;DHT22;14298;50.900;4.648;2022-08-21T07:08:25;19.30;97.10
26687;DHT22;14298;50.900;4.648;2022-08-21T07:10:56;19.50;97.10
26687;DHT22;14298;50.900;4.648;2022-08-21T07:13:25;19.90;97.10
26687;DHT22;14298;50.900;4.648;2022-08-21T07:15:54;20.20;97.10
26687;DHT22;14298;50.900;4.648;2022-08-21T07:18:23;20.50;97.10
26687;DHT22;14298;50.900;4.648;2022-08-21T07:20:51;20.80;97.10
26687;DHT22;14298;50.900;4.648;2022-08-21T07:23:27;21.10;97.10
26687;DHT22;14298;50.900;4.648;2022-08-21T07:25:55;21.30;97.10
26687;DHT22;14298;50.900;4.648;2022-08-21T07:28:23;21.40;97.10
26687;DHT22;14298;50.900;4.648;2022-08-21T07:30:53;21.70;97.10
26687;DHT22;14298;50.900;4.648;2022-08-21T07:33:24;22.00;97.10
26687;DHT22;14298;50.900;4.648;2022-08-21T07:35:53;22.30;97.10
26687;DHT22;14298;50.900;4.648;2022-08-21T07:38:22;22.80;97.10
26687;DHT22;14298;50.900;4.648;2022-08-21T07:40:53;23.10;97.10
26687;DHT22;14298;50.900;4.648;2022-08-21T07:43:22;23.30;97.10
26687;DHT22;14298;50.900;4.648;2022-08-21T07:45:51;23.50;97.10
26687;DHT22;14298;50.900;4.648;2022-08-21T07:48:24;23.80;97.10
26687;DHT22;14298;50.900;4.648;2022-08-21T07:50:52;23.60;97.10
26687;DHT22;14298;50.900;4.648;2022-08-21T07:53:22;23.30;97.10
26687;DHT22;14298;50.900;4.648;2022-08-21T07:55:51;23.40;97.10
26687;DHT22;14298;50.900;4.648;2022-08-21T07:58:19;23.30;97.10
26687;DHT22;14298;50.900;4.648;2022-08-21T08:00:47;23.70;97.10
26687;DHT22;14298;50.900;4.648;2022-08-21T08:03:16;24.40;97.10
26687;DHT22;14298;50.900;4.648;2022-08-21T08:05:45;24.60;97.10
26687;DHT22;14298;50.900;4.648;2022-08-21T08:08:13;24.70;97.10
26687;DHT22;14298;50.900;4.648;2022-08-21T08:10:42;25.30;97.10
26687;DHT22;14298;50.900;4.648;2022-08-21T08:13:11;25.80;97.10
26687;DHT22;14298;50.900;4.648;2022-08-21T08:15:39;25.90;97.10
26687;DHT22;14298;50.900;4.648;2022-08-21T08:18:07;25.70;97.10
26687;DHT22;14298;50.900;4.648;2022-08-21T08:20:36;25.80;97.10
26687;DHT22;14298;50.900;4.648;2022-08-21T08:23:04;26.40;97.10
26687;DHT22;14298;50.900;4.648;2022-08-21T08:25:33;26.20;97.10
26687;DHT22;14298;50.900;4.648;2022-08-21T08:28:01;26.10;97.10
26687;DHT22;14298;50.900;4.648;2022-08-21T08:30:29;25.80;97.10
26687;DHT22;14298;50.900;4.648;2022-08-21T08:32:58;25.70;97.10
26687;DHT22;14298;50.900;4.648;2022-08-21T08:35:27;25.90;97.10
26687;DHT22;14298;50.900;4.648;2022-08-21T08:37:56;26.10;97.10
26687;DHT22;14298;50.900;4.648;2022-08-21T08:43:03;26.20;97.10
26687;DHT22;14298;50.900;4.648;2022-08-21T08:45:36;27.00;97.10
26687;DHT22;14298;50.900;4.648;2022-08-21T08:48:08;27.40;97.10
26687;DHT22;14298;50.900;4.648;2022-08-21T08:50:56;28.00;97.10
26687;DHT22;14298;50.900;4.648;2022-08-21T08:53:31;28.80;97.10
26687;DHT22;14298;50.900;4.648;2022-08-21T08:56:01;29.10;97.10
26687;DHT22;14298;50.900;4.648;2022-08-21T08:58:37;30.30;97.10
26687;DHT22;14298;50.900;4.648;2022-08-21T09:01:10;31.40;97.10
26687;DHT22;14298;50.900;4.648;2022-08-21T09:03:37;32.70;97.10
26687;DHT22;14298;50.900;4.648;2022-08-21T09:17:02;34.40;94.60
26687;DHT22;14298;50.900;4.648;2022-08-21T09:19:43;33.30;96.30
26687;DHT22;14298;50.900;4.648;2022-08-21T09:25:22;34.90;93.90
26687;DHT22;14298;50.900;4.648;2022-08-21T09:27:51;34.40;93.70
26687;DHT22;14298;50.900;4.648;2022-08-21T09:30:24;33.90;95.00
26687;DHT22;14298;50.900;4.648;2022-08-21T09:32:50;34.30;94.00
26687;DHT22;14298;50.900;4.648;2022-08-21T09:35:21;33.10;95.10
26687;DHT22;14298;50.900;4.648;2022-08-21T09:38:04;31.90;97.10
26687;DHT22;14298;50.900;4.648;2022-08-21T09:40:40;30.70;97.10
26687;DHT22;14298;50.900;4.648;2022-08-21T09:45:45;32.20;97.10
26687;DHT22;14298;50.900;4.648;2022-08-21T09:48:22;32.70;96.70
26687;DHT22;14298;50.900;4.648;2022-08-21T09:50:52;33.50;95.90
26687;DHT22;14298;50.900;4.648;2022-08-21T09:53:24;34.00;94.10
26687;DHT22;14298;50.900;4.648;2022-08-21T09:56:02;34.60;92.20
26687;DHT22;14298;50.900;4.648;2022-08-21T09:58:49;34.80;92.20
26687;DHT22;14298;50.900;4.648;2022-08-21T10:01:22;32.90;94.30
26687;DHT22;14298;50.900;4.648;2022-08-21T10:04:07;31.20;96.80
26687;DHT22;14298;50.900;4.648;2022-08-21T10:06:32;29.40;97.10
26687;DHT22;14298;50.900;4.648;2022-08-21T10:09:09;27.90;97.10
26687;DHT22;14298;50.900;4.648;2022-08-21T10:11:37;26.90;97.10
26687;DHT22;14298;50.900;4.648;2022-08-21T10:17:23;25.50;97.10
26687;DHT22;14298;50.900;4.648;2022-08-21T10:22:47;26.00;97.10
26687;DHT22;14298;50.900;4.648;2022-08-21T10:25:21;25.70;97.10
26687;DHT22;14298;50.900;4.648;2022-08-21T10:30:53;24.90;97.10
26687;DHT22;14298;50.900;4.648;2022-08-21T10:33:26;24.60;97.10
26687;DHT22;14298;50.900;4.648;2022-08-21T10:36:14;25.00;97.10
26687;DHT22;14298;50.900;4.648;2022-08-21T10:44:44;24.80;97.10
26687;DHT22;14298;50.900;4.648;2022-08-21T10:47:19;24.90;97.10
26687;DHT22;14298;50.900;4.648;2022-08-21T10:50:14;25.20;97.10
26687;DHT22;14298;50.900;4.648;2022-08-21T10:55:25;25.40;97.10
26687;DHT22;14298;50.900;4.648;2022-08-21T10:58:08;25.20;97.10
26687;DHT22;14298;50.900;4.648;2022-08-21T11:00:39;25.00;97.10
26687;DHT22;14298;50.900;4.648;2022-08-21T11:03:35;24.90;97.10
26687;DHT22;14298;50.900;4.648;2022-08-21T11:06:08;24.50;97.10
26687;DHT22;14298;50.900;4.648;2022-08-21T11:08:41;24.80;97.10
26687;DHT22;14298;50.900;4.648;2022-08-21T11:11:24;25.30;97.10
26687;DHT22;14298;50.900;4.648;2022-08-21T11:14:04;25.60;97.10
26687;DHT22;14298;50.900;4.648;2022-08-21T11:16:41;25.70;97.10
26687;DHT22;14298;50.900;4.648;2022-08-21T11:19:19;25.30;97.10
26687;DHT22;14298;50.900;4.648;2022-08-21T11:21:55;25.10;97.10
26687;DHT22;14298;50.900;4.648;2022-08-21T11:24:38;24.80;97.10
26687;DHT22;14298;50.900;4.648;2022-08-21T11:27:16;24.80;97.10
26687;DHT22;14298;50.900;4.648;2022-08-21T11:29:43;25.20;97.10
26687;DHT22;14298;50.900;4.648;2022-08-21T11:41:08;25.00;97.10
26687;DHT22;14298;50.900;4.648;2022-08-21T11:43:41;24.80;97.10
26687;DHT22;14298;50.900;4.648;2022-08-21T11:46:31;24.50;97.10
26687;DHT22;14298;50.900;4.648;2022-08-21T11:49:06;24.30;97.10
26687;DHT22;14298;50.900;4.648;2022-08-21T11:54:29;24.90;97.10
26687;DHT22;14298;50.900;4.648;2022-08-21T11:57:20;25.20;97.10
26687;DHT22;14298;50.900;4.648;2022-08-21T12:02:28;25.00;97.10
26687;DHT22;14298;50.900;4.648;2022-08-21T12:04:57;25.10;97.10
26687;DHT22;14298;50.900;4.648;2022-08-21T12:07:41;25.10;97.10
26687;DHT22;14298;50.900;4.648;2022-08-21T12:10:12;25.10;97.10
26687;DHT22;14298;50.900;4.648;2022-08-21T12:12:43;25.20;97.10
26687;DHT22;14298;50.900;4.648;2022-08-21T12:15:25;25.20;97.10
26687;DHT22;14298;50.900;4.648;2022-08-21T12:18:05;25.20;97.10
26687;DHT22;14298;50.900;4.648;2022-08-21T12:20:42;25.10;97.10
26687;DHT22;14298;50.900;4.648;2022-08-21T12:26:23;25.10;97.10
26687;DHT22;14298;50.900;4.648;2022-08-21T12:28:48;25.30;97.10
26687;DHT22;14298;50.900;4.648;2022-08-21T12:31:22;25.50;97.10
26687;DHT22;14298;50.900;4.648;2022-08-21T12:33:58;25.60;97.10
26687;DHT22;14298;50.900;4.648;2022-08-21T12:36:52;25.90;97.10
26687;DHT22;14298;50.900;4.648;2022-08-21T12:39:21;26.20;97.10
26687;DHT22;14298;50.900;4.648;2022-08-21T12:41:51;26.40;97.10
26687;DHT22;14298;50.900;4.648;2022-08-21T12:44:37;26.50;97.10
26687;DHT22;14298;50.900;4.648;2022-08-21T12:47:05;26.50;97.10
26687;DHT22;14298;50.900;4.648;2022-08-21T12:49:37;26.40;97.10
26687;DHT22;14298;50.900;4.648;2022-08-21T12:54:40;26.20;97.10
26687;DHT22;14298;50.900;4.648;2022-08-21T12:57:18;26.20;97.10
26687;DHT22;14298;50.900;4.648;2022-08-21T12:59:53;26.40;97.10
26687;DHT22;14298;50.900;4.648;2022-08-21T13:02:20;26.40;97.10
26687;DHT22;14298;50.900;4.648;2022-08-21T13:04:49;26.40;97.10
26687;DHT22;14298;50.900;4.648;2022-08-21T13:07:33;26.20;97.10
26687;DHT22;14298;50.900;4.648;2022-08-21T13:12:46;25.90;97.10
26687;DHT22;14298;50.900;4.648;2022-08-21T13:15:22;25.60;97.10
26687;DHT22;14298;50.900;4.648;2022-08-21T13:17:48;25.50;97.10
26687;DHT22;14298;50.900;4.648;2022-08-21T13:20:27;25.30;97.10
26687;DHT22;14298;50.900;4.648;2022-08-21T13:22:55;25.30;97.10
26687;DHT22;14298;50.900;4.648;2022-08-21T13:25:33;25.20;97.10
26687;DHT22;14298;50.900;4.648;2022-08-21T13:28:08;25.10;97.10
26687;DHT22;14298;50.900;4.648;2022-08-21T13:30:44;24.90;97.10
26687;DHT22;14298;50.900;4.648;2022-08-21T13:33:15;24.80;97.10
26687;DHT22;14298;50.900;4.648;2022-08-21T13:38:24;24.80;97.10
26687;DHT22;14298;50.900;4.648;2022-08-21T13:40:58;24.70;97.10
26687;DHT22;14298;50.900;4.648;2022-08-21T13:43:30;24.70;97.10
26687;DHT22;14298;50.900;4.648;2022-08-21T13:45:58;24.90;97.10
26687;DHT22;14298;50.900;4.648;2022-08-21T13:48:29;25.00;97.10
26687;DHT22;14298;50.900;4.648;2022-08-21T13:50:59;25.10;97.10
26687;DHT22;14298;50.900;4.648;2022-08-21T13:53:34;25.20;97.10
26687;DHT22;14298;50.900;4.648;2022-08-21T13:56:03;25.20;97.10
26687;DHT22;14298;50.900;4.648;2022-08-21T13:58:42;25.30;97.10
26687;DHT22;14298;50.900;4.648;2022-08-21T14:01:03;25.40;97.10
26687;DHT22;14298;50.900;4.648;2022-08-21T14:03:42;25.30;97.10
26687;DHT22;14298;50.900;4.648;2022-08-21T14:06:21;24.80;97.10
26687;DHT22;14298;50.900;4.648;2022-08-21T14:08:59;24.40;97.10
26687;DHT22;14298;50.900;4.648;2022-08-21T14:11:25;24.20;97.10
26687;DHT22;14298;50.900;4.648;2022-08-21T14:13:57;24.30;97.10
26687;DHT22;14298;50.900;4.648;2022-08-21T14:16:46;24.40;97.10
26687;DHT22;14298;50.900;4.648;2022-08-21T14:21:37;24.20;97.10
26687;DHT22;14298;50.900;4.648;2022-08-21T14:24:08;24.00;97.10
26687;DHT22;14298;50.900;4.648;2022-08-21T14:26:46;24.10;97.10
26687;DHT22;14298;50.900;4.648;2022-08-21T14:29:16;24.20;97.10
26687;DHT22;14298;50.900;4.648;2022-08-21T14:31:49;24.40;97.10
26687;DHT22;14298;50.900;4.648;2022-08-21T14:34:18;24.60;97.10
26687;DHT22;14298;50.900;4.648;2022-08-21T14:36:48;25.00;97.10
26687;DHT22;14298;50.900;4.648;2022-08-21T14:39:17;25.00;97.10
26687;DHT22;14298;50.900;4.648;2022-08-21T14:41:46;24.90;97.10
26687;DHT22;14298;50.900;4.648;2022-08-21T14:44:16;24.80;97.10
26687;DHT22;14298;50.900;4.648;2022-08-21T14:46:45;24.70;97.10
26687;DHT22;14298;50.900;4.648;2022-08-21T14:49:14;24.50;97.10
26687;DHT22;14298;50.900;4.648;2022-08-21T14:51:42;24.50;97.10
26687;DHT22;14298;50.900;4.648;2022-08-21T14:54:10;24.30;97.10
26687;DHT22;14298;50.900;4.648;2022-08-21T14:56:39;24.40;97.10
26687;DHT22;14298;50.900;4.648;2022-08-21T14:59:08;24.60;97.10
26687;DHT22;14298;50.900;4.648;2022-08-21T15:01:38;24.60;97.10
26687;DHT22;14298;50.900;4.648;2022-08-21T15:04:07;24.60;97.10
26687;DHT22;14298;50.900;4.648;2022-08-21T15:06:35;24.70;97.10
26687;DHT22;14298;50.900;4.648;2022-08-21T15:09:04;24.80;97.10
26687;DHT22;14298;50.900;4.648;2022-08-21T15:11:34;24.80;97.10
26687;DHT22;14298;50.900;4.648;2022-08-21T15:14:04;24.80;97.10
26687;DHT22;14298;50.900;4.648;2022-08-21T15:16:34;24.80;97.10
26687;DHT22;14298;50.900;4.648;2022-08-21T15:19:03;24.90;97.10
26687;DHT22;14298;50.900;4.648;2022-08-21T15:21:31;24.90;97.10
26687;DHT22;14298;50.900;4.648;2022-08-21T15:24:00;24.90;97.10
26687;DHT22;14298;50.900;4.648;2022-08-21T15:26:28;25.10;97.10
26687;DHT22;14298;50.900;4.648;2022-08-21T15:28:58;25.30;97.10
26687;DHT22;14298;50.900;4.648;2022-08-21T15:31:28;25.40;97.10
26687;DHT22;14298;50.900;4.648;2022-08-21T15:33:56;25.30;97.10
26687;DHT22;14298;50.900;4.648;2022-08-21T15:36:24;25.30;97.10
26687;DHT22;14298;50.900;4.648;2022-08-21T15:38:53;25.20;97.10
26687;DHT22;14298;50.900;4.648;2022-08-21T15:41:21;25.20;97.10
26687;DHT22;14298;50.900;4.648;2022-08-21T15:43:51;25.30;97.10
26687;DHT22;14298;50.900;4.648;2022-08-21T15:46:21;25.40;97.10
26687;DHT22;14298;50.900;4.648;2022-08-21T15:48:49;25.40;97.10
26687;DHT22;14298;50.900;4.648;2022-08-21T15:51:18;25.40;97.10
26687;DHT22;14298;50.900;4.648;2022-08-21T15:53:46;25.40;97.10
26687;DHT22;14298;50.900;4.648;2022-08-21T15:56:27;25.30;97.10
26687;DHT22;14298;50.900;4.648;2022-08-21T15:59:01;25.30;97.10
26687;DHT22;14298;50.900;4.648;2022-08-21T16:01:29;25.20;97.10
26687;DHT22;14298;50.900;4.648;2022-08-21T16:03:58;25.20;97.10
26687;DHT22;14298;50.900;4.648;2022-08-21T16:06:26;25.00;97.10
26687;DHT22;14298;50.900;4.648;2022-08-21T16:08:55;24.90;97.10
26687;DHT22;14298;50.900;4.648;2022-08-21T16:11:23;24.90;97.10
26687;DHT22;14298;50.900;4.648;2022-08-21T16:13:52;24.90;97.10
26687;DHT22;14298;50.900;4.648;2022-08-21T16:16:22;24.90;97.10
26687;DHT22;14298;50.900;4.648;2022-08-21T16:18:51;24.90;97.10
26687;DHT22;14298;50.900;4.648;2022-08-21T16:21:20;24.80;97.10
26687;DHT22;14298;50.900;4.648;2022-08-21T16:23:48;24.70;97.10
26687;DHT22;14298;50.900;4.648;2022-08-21T16:26:16;24.60;97.10
26687;DHT22;14298;50.900;4.648;2022-08-21T16:28:54;24.60;97.10
26687;DHT22;14298;50.900;4.648;2022-08-21T16:31:16;24.60;97.10
26687;DHT22;14298;50.900;4.648;2022-08-21T16:33:48;24.50;97.10
26687;DHT22;14298;50.900;4.648;2022-08-21T16:36:16;24.30;97.10
26687;DHT22;14298;50.900;4.648;2022-08-21T16:38:44;24.20;97.10
26687;DHT22;14298;50.900;4.648;2022-08-21T16:41:17;24.10;97.10
26687;DHT22;14298;50.900;4.648;2022-08-21T16:43:49;24.20;97.10
26687;DHT22;14298;50.900;4.648;2022-08-21T16:46:19;24.30;97.10
26687;DHT22;14298;50.900;4.648;2022-08-21T16:48:48;24.30;97.10
26687;DHT22;14298;50.900;4.648;2022-08-21T16:51:16;24.20;97.10
26687;DHT22;14298;50.900;4.648;2022-08-21T16:53:45;24.20;97.10
26687;DHT22;14298;50.900;4.648;2022-08-21T16:56:15;24.20;97.10
26687;DHT22;14298;50.900;4.648;2022-08-21T16:58:46;24.10;97.10
26687;DHT22;14298;50.900;4.648;2022-08-21T17:01:19;24.00;97.10